Time;durP1;ratioP1;P1;durP2;ratioP2;P2;SDS_P1;SDS_P2;PMS_P1;PMS_P2;Temp;Humidity;BMP_temperature;BMP_pressure;BME280_temperature;BME280_humidity;BME280_pressure;Samples;Min_cycle;Max_cycle;Signal;HPM_P1;HPM_P2
2023/02/13 00:01:48;;;;;;;7.17;5.50;;;;;;;;;;5068034;28;20285;-48
2023/02/13 00:04:19;;;;;;;7.77;5.87;;;;;;;;;;5064999;28;20465;-48
2023/02/13 00:06:50;;;;;;;7.00;5.97;;;;;;;;;;5067668;28;20239;-48
2023/02/13 00:09:20;;;;;;;6.33;5.70;;;;;;;;;;5050063;28;20198;-48
2023/02/13 00:11:50;;;;;;;6.57;5.77;;;;;;;;;;5068994;28;20212;-48
2023/02/13 00:14:23;;;;;;;6.90;5.80;;;;;;;;;;5060909;28;20198;-48
2023/02/13 00:16:54;;;;;;;6.70;5.70;;;;;;;;;;5065421;28;20210;-48
2023/02/13 00:19:23;;;;;;;7.03;5.83;;;;;;;;;;5066065;28;20205;-48
2023/02/13 00:21:56;;;;;;;6.57;5.80;;;;;;;;;;5069154;28;20201;-48
2023/02/13 00:24:27;;;;;;;7.07;5.80;;;;;;;;;;5049946;28;20240;-48
2023/02/13 00:26:59;;;;;;;5.97;5.33;;;;;;;;;;5065720;28;20204;-48
2023/02/13 00:29:30;;;;;;;7.13;6.40;;;;;;;;;;5058436;28;20224;-48
2023/02/13 00:32:01;;;;;;;7.97;5.57;;;;;;;;;;5068696;28;20220;-48
2023/02/13 00:34:32;;;;;;;7.13;5.87;;;;;;;;;;5066157;28;20201;-48
2023/02/13 00:37:12;;;;;;;7.90;6.53;;;;;;;;;;5049084;28;20217;-48
2023/02/13 00:39:44;;;;;;;6.23;5.43;;;;;;;;;;5059945;28;20316;-48
2023/02/13 00:42:14;;;;;;;6.80;6.10;;;;;;;;;;5048027;28;20255;-48
2023/02/13 00:44:46;;;;;;;6.63;5.97;;;;;;;;;;5065980;28;20584;-48
2023/02/13 00:47:19;;;;;;;7.77;6.47;;;;;;;;;;5056513;28;20193;-47
2023/02/13 00:49:50;;;;;;;6.97;5.90;;;;;;;;;;5065747;28;20209;-48
2023/02/13 00:52:22;;;;;;;6.80;6.03;;;;;;;;;;5063931;28;20241;-48
2023/02/13 00:54:54;;;;;;;6.77;5.97;;;;;;;;;;5069121;28;20192;-48
2023/02/13 00:57:23;;;;;;;6.77;5.47;;;;;;;;;;5067394;28;20650;-48
2023/02/13 00:59:53;;;;;;;7.20;6.30;;;;;;;;;;5068640;28;20197;-48
2023/02/13 01:02:25;;;;;;;7.33;6.27;;;;;;;;;;5069152;28;20202;-48
2023/02/13 01:04:55;;;;;;;7.10;6.37;;;;;;;;;;5030752;28;20199;-48
2023/02/13 01:07:28;;;;;;;6.90;6.20;;;;;;;;;;5065462;28;20193;-48
2023/02/13 01:10:00;;;;;;;8.53;6.30;;;;;;;;;;5051106;28;20205;-48
2023/02/13 01:12:32;;;;;;;6.67;6.03;;;;;;;;;;5070228;28;20602;-48
2023/02/13 01:15:05;;;;;;;6.50;5.80;;;;;;;;;;5069608;28;20225;-48
2023/02/13 01:17:40;;;;;;;7.27;6.43;;;;;;;;;;5050010;28;20217;-48
2023/02/13 01:20:12;;;;;;;6.70;6.00;;;;;;;;;;5070380;28;20646;-48
2023/02/13 01:22:43;;;;;;;6.80;6.10;;;;;;;;;;5065428;28;20213;-48
2023/02/13 01:25:11;;;;;;;6.80;6.10;;;;;;;;;;5051626;28;20232;-48
2023/02/13 01:27:43;;;;;;;6.87;6.17;;;;;;;;;;5066990;28;20228;-48
2023/02/13 01:30:15;;;;;;;7.13;6.13;;;;;;;;;;5041793;28;20202;-48
2023/02/13 01:32:50;;;;;;;7.37;6.47;;;;;;;;;;5068991;28;20221;-48
2023/02/13 01:35:20;;;;;;;7.77;6.13;;;;;;;;;;5051077;28;20668;-48
2023/02/13 01:37:50;;;;;;;7.00;6.30;;;;;;;;;;5066846;28;20730;-48
2023/02/13 01:40:21;;;;;;;7.50;6.07;;;;;;;;;;5064594;28;20225;-47
2023/02/13 01:42:51;;;;;;;7.60;6.83;;;;;;;;;;5068649;28;20201;-48
2023/02/13 01:45:22;;;;;;;6.60;5.90;;;;;;;;;;5067869;28;20398;-48
2023/02/13 01:48:00;;;;;;;7.07;6.13;;;;;;;;;;5068013;28;20267;-48
2023/02/13 01:50:34;;;;;;;7.17;6.47;;;;;;;;;;5050614;28;20204;-48
2023/02/13 01:53:14;;;;;;;6.80;6.10;;;;;;;;;;5066330;28;20328;-48
2023/02/13 01:56:09;;;;;;;6.00;5.40;;;;;;;;;;5057763;28;20205;-48
2023/02/13 01:58:39;;;;;;;7.23;6.53;;;;;;;;;;5055358;28;20209;-48
2023/02/13 02:01:12;;;;;;;6.93;6.13;;;;;;;;;;5069059;28;20434;-48
2023/02/13 02:04:17;;;;;;;6.53;5.93;;;;;;;;;;5049821;28;20296;-48
2023/02/13 02:06:50;;;;;;;6.57;5.87;;;;;;;;;;5060944;28;20619;-48
2023/02/13 02:09:23;;;;;;;7.10;6.10;;;;;;;;;;5047254;28;20206;-48
2023/02/13 02:12:09;;;;;;;6.80;6.10;;;;;;;;;;5067555;28;20685;-48
2023/02/13 02:14:40;;;;;;;7.17;6.07;;;;;;;;;;5068561;28;20182;-48
2023/02/13 02:17:12;;;;;;;6.40;5.80;;;;;;;;;;5065457;28;20209;-48
2023/02/13 02:20:01;;;;;;;6.17;5.53;;;;;;;;;;5068471;28;20190;-48
2023/02/13 02:22:50;;;;;;;7.77;6.97;;;;;;;;;;5065237;28;20199;-48
2023/02/13 02:25:30;;;;;;;6.57;5.93;;;;;;;;;;5065136;28;20674;-48
2023/02/13 02:28:23;;;;;;;7.10;6.37;;;;;;;;;;5046712;28;20611;-47
2023/02/13 02:31:14;;;;;;;7.40;6.70;;;;;;;;;;5066339;28;20257;-48
2023/02/13 02:33:42;;;;;;;8.00;6.23;;;;;;;;;;5065628;28;20209;-48
2023/02/13 02:36:33;;;;;;;8.23;6.63;;;;;;;;;;5072332;28;20198;-48
2023/02/13 02:39:14;;;;;;;7.33;6.23;;;;;;;;;;5067482;28;20194;-48
2023/02/13 02:41:57;;;;;;;6.77;6.07;;;;;;;;;;5046962;28;20560;-48
2023/02/13 02:44:47;;;;;;;7.43;6.13;;;;;;;;;;5066051;28;20212;-48
2023/02/13 02:50:38;;;;;;;7.77;6.13;;;;;;;;;;5071935;28;20217;-48
2023/02/13 02:53:38;;;;;;;7.27;6.27;;;;;;;;;;5062923;28;20226;-48
2023/02/13 02:56:12;;;;;;;7.53;6.27;;;;;;;;;;5007636;28;20205;-48
2023/02/13 03:07:30;;;;;;;6.77;6.10;;;;;;;;;;5063996;28;20259;-48
2023/02/13 03:13:45;;;;;;;7.90;5.83;;;;;;;;;;5012538;28;20255;-48
2023/02/13 03:22:20;;;;;;;7.07;5.83;;;;;;;;;;5024647;28;20202;-48
2023/02/13 03:25:09;;;;;;;5.83;5.23;;;;;;;;;;5019104;28;20191;-48
2023/02/13 03:30:52;;;;;;;6.33;5.73;;;;;;;;;;5022407;28;20714;-47
2023/02/13 03:33:24;;;;;;;7.57;5.70;;;;;;;;;;5021668;28;20879;-48
2023/02/13 03:39:06;;;;;;;7.30;6.20;;;;;;;;;;5025729;28;20207;-48
2023/02/13 03:42:01;;;;;;;6.60;6.00;;;;;;;;;;5017328;28;20559;-48
2023/02/13 03:44:44;;;;;;;7.53;5.93;;;;;;;;;;5049965;28;20643;-48
2023/02/13 03:47:15;;;;;;;6.40;5.80;;;;;;;;;;5063152;28;20205;-48
2023/02/13 03:50:06;;;;;;;6.50;5.80;;;;;;;;;;5051969;28;20263;-48
2023/02/13 03:52:39;;;;;;;6.90;6.20;;;;;;;;;;5049479;28;20883;-48
2023/02/13 04:00:58;;;;;;;6.30;5.70;;;;;;;;;;5051525;28;20271;-48
2023/02/13 04:03:27;;;;;;;6.57;5.80;;;;;;;;;;5042624;28;20251;-47
2023/02/13 04:06:12;;;;;;;6.13;5.53;;;;;;;;;;5067058;28;20521;-48
2023/02/13 04:08:44;;;;;;;5.60;5.03;;;;;;;;;;5066031;28;20399;-48
2023/02/13 04:11:32;;;;;;;6.17;5.57;;;;;;;;;;5066536;28;20200;-48
2023/02/13 04:14:00;;;;;;;5.90;5.30;;;;;;;;;;5062478;28;20228;-48
2023/02/13 04:16:35;;;;;;;6.00;5.40;;;;;;;;;;5027338;28;20640;-48
2023/02/13 04:19:08;;;;;;;6.40;5.80;;;;;;;;;;5018138;28;20321;-48
2023/02/13 04:21:39;;;;;;;7.30;5.97;;;;;;;;;;5062580;28;20544;-48
2023/02/13 04:24:11;;;;;;;8.23;5.87;;;;;;;;;;5049381;28;20243;-48
2023/02/13 04:26:47;;;;;;;6.07;5.47;;;;;;;;;;5065933;28;20258;-48
2023/02/13 04:29:15;;;;;;;5.87;5.27;;;;;;;;;;5066148;28;20209;-48
2023/02/13 04:31:45;;;;;;;6.03;5.40;;;;;;;;;;5072170;28;20249;-48
2023/02/13 04:34:17;;;;;;;6.13;5.47;;;;;;;;;;5068828;28;20217;-48
2023/02/13 04:36:47;;;;;;;5.90;5.10;;;;;;;;;;5052486;28;20202;-48
2023/02/13 04:39:18;;;;;;;6.53;5.77;;;;;;;;;;5069441;28;20194;-48
2023/02/13 04:41:48;;;;;;;5.57;5.07;;;;;;;;;;5068712;28;20630;-48
2023/02/13 04:44:19;;;;;;;5.53;5.03;;;;;;;;;;5070870;28;20205;-47
2023/02/13 04:46:51;;;;;;;5.40;4.90;;;;;;;;;;5070706;28;20255;-48
2023/02/13 04:49:19;;;;;;;5.80;4.97;;;;;;;;;;5069884;28;20199;-48
2023/02/13 04:51:49;;;;;;;5.93;5.43;;;;;;;;;;5065953;28;20217;-48
2023/02/13 04:54:19;;;;;;;6.23;5.60;;;;;;;;;;5071328;28;20221;-48
2023/02/13 04:56:50;;;;;;;6.70;5.77;;;;;;;;;;5070802;28;20209;-48
2023/02/13 04:59:20;;;;;;;6.27;5.67;;;;;;;;;;5050206;28;20229;-48
2023/02/13 05:01:55;;;;;;;5.10;4.60;;;;;;;;;;5069140;28;20189;-47
2023/02/13 05:04:25;;;;;;;6.10;5.50;;;;;;;;;;5067261;28;20214;-48
2023/02/13 05:06:58;;;;;;;5.90;5.03;;;;;;;;;;5066162;28;20198;-48
2023/02/13 05:09:27;;;;;;;5.87;5.27;;;;;;;;;;5065462;28;20194;-47
2023/02/13 05:12:00;;;;;;;5.97;5.37;;;;;;;;;;5051446;28;20185;-48
2023/02/13 05:14:32;;;;;;;5.70;4.83;;;;;;;;;;5052374;28;20279;-47
2023/02/13 05:17:04;;;;;;;4.93;4.43;;;;;;;;;;5059539;28;20220;-48
2023/02/13 05:19:36;;;;;;;5.50;4.83;;;;;;;;;;5059342;28;20202;-48
2023/02/13 05:25:01;;;;;;;5.13;4.63;;;;;;;;;;5036653;28;20221;-47
2023/02/13 05:27:32;;;;;;;5.37;4.67;;;;;;;;;;5063331;28;20665;-48
2023/02/13 05:30:08;;;;;;;6.10;5.10;;;;;;;;;;5056941;28;20232;-48
2023/02/13 05:32:41;;;;;;;5.30;4.80;;;;;;;;;;5068826;28;20616;-48
2023/02/13 05:35:15;;;;;;;5.40;4.73;;;;;;;;;;5069228;28;20213;-51
2023/02/13 05:37:43;;;;;;;5.57;5.07;;;;;;;;;;5080015;28;20198;-48
2023/02/13 05:40:14;;;;;;;6.20;4.77;;;;;;;;;;5046817;28;20229;-48
2023/02/13 05:42:44;;;;;;;4.87;4.23;;;;;;;;;;5068426;28;20653;-48
2023/02/13 05:45:15;;;;;;;5.37;4.87;;;;;;;;;;5073465;28;20245;-48
2023/02/13 05:47:43;;;;;;;4.83;4.40;;;;;;;;;;5063483;28;20209;-48
2023/02/13 05:50:17;;;;;;;4.93;4.43;;;;;;;;;;5068090;28;20186;-48
2023/02/13 05:52:49;;;;;;;4.57;4.17;;;;;;;;;;5065930;28;20711;-48
2023/02/13 05:55:18;;;;;;;4.87;4.47;;;;;;;;;;5068605;28;20202;-48
2023/02/13 05:57:46;;;;;;;4.57;4.17;;;;;;;;;;5068444;28;20201;-48
2023/02/13 06:00:19;;;;;;;5.53;4.77;;;;;;;;;;5059375;28;20198;-48
2023/02/13 06:02:51;;;;;;;4.73;4.23;;;;;;;;;;5069969;28;20552;-48
2023/02/13 06:05:24;;;;;;;5.03;4.37;;;;;;;;;;5064540;28;20205;-48
2023/02/13 06:07:55;;;;;;;8.33;4.67;;;;;;;;;;5068914;28;20659;-48
2023/02/13 06:10:28;;;;;;;4.77;4.33;;;;;;;;;;5069662;28;20204;-48
2023/02/13 06:12:57;;;;;;;4.83;4.33;;;;;;;;;;5068559;28;20241;-48
2023/02/13 06:15:28;;;;;;;5.00;4.60;;;;;;;;;;5050867;28;20209;-48
2023/02/13 06:18:00;;;;;;;4.90;4.50;;;;;;;;;;5067444;28;20250;-48
2023/02/13 06:20:28;;;;;;;4.40;4.00;;;;;;;;;;5050354;28;20316;-48
2023/02/13 06:22:57;;;;;;;6.13;4.80;;;;;;;;;;5068691;28;20236;-47
2023/02/13 06:25:26;;;;;;;5.13;4.63;;;;;;;;;;5065758;28;20656;-48
2023/02/13 06:27:56;;;;;;;3.93;3.53;;;;;;;;;;5068624;28;20255;-48
2023/02/13 06:30:29;;;;;;;4.47;4.07;;;;;;;;;;5071061;28;20218;-48
2023/02/13 06:33:01;;;;;;;4.87;4.37;;;;;;;;;;5070462;28;20217;-48
2023/02/13 06:35:33;;;;;;;4.00;3.60;;;;;;;;;;5048962;28;20656;-48
2023/02/13 06:38:04;;;;;;;4.77;4.10;;;;;;;;;;5056215;28;20354;-48
2023/02/13 06:40:33;;;;;;;5.20;4.50;;;;;;;;;;5028801;28;20234;-48
2023/02/13 06:43:04;;;;;;;5.00;4.43;;;;;;;;;;5059269;28;20230;-48
2023/02/13 06:45:54;;;;;;;8.23;4.50;;;;;;;;;;5061846;28;20679;-47
2023/02/13 06:48:26;;;;;;;11.23;6.00;;;;;;;;;;5071536;28;20202;-45
2023/02/13 06:51:00;;;;;;;17.67;6.30;;;;;;;;;;5067205;28;20186;-48
2023/02/13 06:53:39;;;;;;;13.97;5.77;;;;;;;;;;5059735;28;20855;-48
2023/02/13 06:56:07;;;;;;;17.60;6.53;;;;;;;;;;5068607;28;20198;-45
2023/02/13 06:58:41;;;;;;;13.17;6.13;;;;;;;;;;5068673;28;20298;-45
2023/02/13 07:01:24;;;;;;;12.67;5.97;;;;;;;;;;5068919;28;20292;-44
2023/02/13 07:03:54;;;;;;;11.50;5.77;;;;;;;;;;5051906;28;20196;-45
2023/02/13 07:06:25;;;;;;;15.03;6.63;;;;;;;;;;5065595;28;20284;-45
2023/02/13 07:08:57;;;;;;;11.63;5.57;;;;;;;;;;5071123;28;20228;-45
2023/02/13 07:11:27;;;;;;;18.03;6.70;;;;;;;;;;5050693;28;20186;-45
2023/02/13 07:13:56;;;;;;;12.00;6.20;;;;;;;;;;5053522;28;20216;-45
2023/02/13 07:16:28;;;;;;;10.77;5.97;;;;;;;;;;5051749;28;20194;-48
2023/02/13 07:18:59;;;;;;;12.20;6.07;;;;;;;;;;5061461;28;20962;-48
2023/02/13 07:21:30;;;;;;;8.67;5.40;;;;;;;;;;5065570;28;20201;-48
2023/02/13 07:23:58;;;;;;;8.17;5.43;;;;;;;;;;5066962;28;20662;-48
2023/02/13 07:26:29;;;;;;;11.77;5.83;;;;;;;;;;5067023;28;20209;-48
2023/02/13 07:29:04;;;;;;;16.77;6.77;;;;;;;;;;5052780;28;20194;-48
2023/02/13 07:31:40;;;;;;;350.80;84.60;;;;;;;;;;5063438;28;20806;-45
2023/02/13 07:34:08;;;;;;;279.90;71.53;;;;;;;;;;5072674;28;20222;-44
2023/02/13 07:36:38;;;;;;;285.03;72.27;;;;;;;;;;5070045;28;20200;-48
2023/02/13 07:39:08;;;;;;;257.60;67.20;;;;;;;;;;5069885;28;20201;-47
2023/02/13 07:41:38;;;;;;;208.87;59.53;;;;;;;;;;5061128;28;20228;-44
2023/02/13 07:44:07;;;;;;;206.23;55.77;;;;;;;;;;5066429;28;20221;-44
2023/02/13 07:46:37;;;;;;;181.63;49.47;;;;;;;;;;5051465;28;20189;-44
2023/02/13 07:49:11;;;;;;;176.73;48.73;;;;;;;;;;5069288;28;20198;-44
2023/02/13 07:51:43;;;;;;;155.27;44.10;;;;;;;;;;5065571;28;20631;-47
2023/02/13 07:54:13;;;;;;;131.27;41.93;;;;;;;;;;5068206;28;20213;-48
2023/02/13 07:56:44;;;;;;;124.47;38.43;;;;;;;;;;5075752;28;20210;-48
2023/02/13 07:59:14;;;;;;;133.80;39.00;;;;;;;;;;5050073;28;20205;-48
2023/02/13 08:01:42;;;;;;;107.37;31.73;;;;;;;;;;5066774;28;20872;-48
2023/02/13 08:04:12;;;;;;;101.20;32.67;;;;;;;;;;5052947;28;20190;-48
2023/02/13 08:06:42;;;;;;;96.63;28.97;;;;;;;;;;5072210;28;20208;-48
2023/02/13 08:12:10;;;;;;;83.40;26.33;;;;;;;;;;5069073;28;20544;-44
2023/02/13 08:14:41;;;;;;;72.40;25.13;;;;;;;;;;5065676;28;20225;-44
2023/02/13 08:17:12;;;;;;;70.57;24.70;;;;;;;;;;5074871;28;20193;-45
2023/02/13 08:19:41;;;;;;;78.03;23.03;;;;;;;;;;5069951;28;20196;-44
2023/02/13 08:22:13;;;;;;;65.07;21.53;;;;;;;;;;5073252;28;20669;-48
2023/02/13 08:24:43;;;;;;;52.57;18.70;;;;;;;;;;5060410;28;20220;-48
2023/02/13 08:27:13;;;;;;;52.27;19.03;;;;;;;;;;5054718;28;20224;-44
2023/02/13 08:29:44;;;;;;;52.63;18.43;;;;;;;;;;5049048;28;20205;-44
2023/02/13 08:32:16;;;;;;;48.10;17.53;;;;;;;;;;5066493;28;20213;-44
2023/02/13 08:34:45;;;;;;;45.20;16.93;;;;;;;;;;5064106;28;20220;-44
2023/02/13 08:37:16;;;;;;;40.63;16.37;;;;;;;;;;5073255;28;20583;-44
2023/02/13 08:39:45;;;;;;;44.77;16.20;;;;;;;;;;5074370;28;20679;-44
2023/02/13 08:42:15;;;;;;;44.20;15.93;;;;;;;;;;5059020;28;20186;-44
2023/02/13 08:44:47;;;;;;;38.70;13.53;;;;;;;;;;5057685;28;20210;-44
2023/02/13 08:47:20;;;;;;;35.00;13.87;;;;;;;;;;5062776;28;20576;-48
2023/02/13 08:50:09;;;;;;;34.20;13.03;;;;;;;;;;5069677;28;20221;-48
2023/02/13 08:52:38;;;;;;;38.77;13.40;;;;;;;;;;5036589;28;20193;-48
2023/02/13 08:55:09;;;;;;;31.27;11.63;;;;;;;;;;5072880;28;20206;-48
2023/02/13 08:57:40;;;;;;;30.50;11.77;;;;;;;;;;5066989;28;21077;-48
2023/02/13 09:00:22;;;;;;;26.47;11.43;;;;;;;;;;5060557;28;20198;-45
2023/02/13 09:02:52;;;;;;;28.57;11.70;;;;;;;;;;5070938;28;20204;-44
2023/02/13 09:05:26;;;;;;;30.27;10.93;;;;;;;;;;5068412;28;20194;-44
2023/02/13 09:08:06;;;;;;;27.03;10.00;;;;;;;;;;5051336;28;20205;-44
2023/02/13 09:10:36;;;;;;;26.30;10.77;;;;;;;;;;5058702;28;20209;-45
2023/02/13 09:13:08;;;;;;;23.70;10.23;;;;;;;;;;5071755;28;20229;-44
2023/02/13 09:15:42;;;;;;;28.23;10.07;;;;;;;;;;5069702;28;20222;-44
2023/02/13 09:18:10;;;;;;;24.70;9.23;;;;;;;;;;5070644;28;20205;-44
2023/02/13 09:21:07;;;;;;;23.60;10.10;;;;;;;;;;5069250;28;20229;-44
2023/02/13 09:23:54;;;;;;;24.57;9.83;;;;;;;;;;5075550;28;20228;-44
2023/02/13 09:26:27;;;;;;;22.37;9.57;;;;;;;;;;5071463;28;20288;-45
2023/02/13 09:28:55;;;;;;;22.13;9.63;;;;;;;;;;5082312;28;20216;-44
2023/02/13 09:31:25;;;;;;;20.43;8.73;;;;;;;;;;5072594;28;20201;-44
2023/02/13 09:34:02;;;;;;;19.83;9.23;;;;;;;;;;5064851;28;20663;-45
2023/02/13 09:36:35;;;;;;;22.13;9.07;;;;;;;;;;5075542;28;20672;-48
2023/02/13 09:39:07;;;;;;;22.80;9.43;;;;;;;;;;5074634;28;20194;-48
2023/02/13 09:41:42;;;;;;;18.50;8.53;;;;;;;;;;5068592;28;20241;-44
2023/02/13 09:44:34;;;;;;;17.13;8.10;;;;;;;;;;5055632;28;20687;-45
2023/02/13 09:47:22;;;;;;;15.70;8.80;;;;;;;;;;5070381;28;20528;-44
2023/02/13 09:49:58;;;;;;;16.20;8.60;;;;;;;;;;5069673;28;20665;-44
2023/02/13 09:52:29;;;;;;;15.20;8.53;;;;;;;;;;5069748;28;20196;-48
2023/02/13 09:55:00;;;;;;;18.17;7.83;;;;;;;;;;5067067;28;20520;-48
2023/02/13 09:57:31;;;;;;;15.67;7.97;;;;;;;;;;5047643;28;20585;-48
2023/02/13 10:00:22;;;;;;;13.23;7.47;;;;;;;;;;5077311;28;20663;-48
2023/02/13 10:03:10;;;;;;;14.27;7.57;;;;;;;;;;5069130;28;20198;-48
2023/02/13 10:05:49;;;;;;;12.57;7.50;;;;;;;;;;5073766;28;20198;-44
2023/02/13 10:08:48;;;;;;;13.17;8.17;;;;;;;;;;5060618;28;20547;-44
2023/02/13 10:11:30;;;;;;;13.00;7.87;;;;;;;;;;5037551;28;20585;-48
2023/02/13 10:14:24;;;;;;;11.90;7.00;;;;;;;;;;5068889;28;20220;-48
2023/02/13 10:17:03;;;;;;;13.20;7.20;;;;;;;;;;5069680;28;20202;-48
2023/02/13 10:19:42;;;;;;;14.03;7.43;;;;;;;;;;5064250;28;20194;-48
2023/02/13 10:22:21;;;;;;;13.10;7.33;;;;;;;;;;5074100;28;20197;-44
2023/02/13 10:25:03;;;;;;;13.23;6.50;;;;;;;;;;5070890;28;20200;-44
2023/02/13 10:27:46;;;;;;;9.20;6.33;;;;;;;;;;5048173;28;20228;-44
2023/02/13 10:30:29;;;;;;;11.23;6.70;;;;;;;;;;5053011;28;20643;-48
2023/02/13 10:35:53;;;;;;;8.47;6.17;;;;;;;;;;5068949;28;20202;-45
2023/02/13 10:38:25;;;;;;;9.73;6.77;;;;;;;;;;5072934;28;20193;-44
2023/02/13 10:41:04;;;;;;;9.60;6.73;;;;;;;;;;5068723;28;20572;-48
2023/02/13 10:44:05;;;;;;;10.00;6.10;;;;;;;;;;5065202;28;20233;-48
2023/02/13 10:46:50;;;;;;;11.50;6.10;;;;;;;;;;5053715;28;20214;-48
2023/02/13 10:49:37;;;;;;;9.83;6.50;;;;;;;;;;5057904;28;20205;-48
2023/02/13 10:52:28;;;;;;;8.73;5.80;;;;;;;;;;5072853;28;20205;-48
2023/02/13 10:55:17;;;;;;;9.57;6.93;;;;;;;;;;5068703;28;20226;-48
2023/02/13 10:58:01;;;;;;;8.40;5.50;;;;;;;;;;5064246;28;20212;-48
2023/02/13 11:00:52;;;;;;;8.40;5.53;;;;;;;;;;5042929;28;20201;-48
2023/02/13 11:03:25;;;;;;;9.33;6.20;;;;;;;;;;5065578;28;20576;-48
2023/02/13 11:05:56;;;;;;;7.60;5.97;;;;;;;;;;5056302;28;20254;-44
2023/02/13 11:08:31;;;;;;;8.23;5.50;;;;;;;;;;5037413;28;20206;-44
2023/02/13 11:11:03;;;;;;;8.87;5.70;;;;;;;;;;5070107;28;20208;-48
2023/02/13 11:13:32;;;;;;;6.43;5.47;;;;;;;;;;5065346;28;20209;-48
2023/02/13 11:16:04;;;;;;;6.67;5.20;;;;;;;;;;5079466;28;20407;-48
2023/02/13 11:18:37;;;;;;;6.73;4.97;;;;;;;;;;5067519;28;20192;-48
2023/02/13 11:21:33;;;;;;;7.07;5.37;;;;;;;;;;5064438;28;20266;-45
2023/02/13 11:24:03;;;;;;;7.47;5.10;;;;;;;;;;5068143;28;20220;-44
2023/02/13 11:26:45;;;;;;;7.07;5.63;;;;;;;;;;5076944;28;20259;-44
2023/02/13 11:29:27;;;;;;;8.70;4.97;;;;;;;;;;5051251;28;20194;-44
2023/02/13 11:32:16;;;;;;;7.93;5.20;;;;;;;;;;5054026;28;20611;-47
2023/02/13 11:34:49;;;;;;;5.27;4.03;;;;;;;;;;5069063;28;20237;-47
2023/02/13 11:37:24;;;;;;;6.67;4.97;;;;;;;;;;5066431;28;20189;-47
2023/02/13 11:39:53;;;;;;;6.67;5.07;;;;;;;;;;5067793;28;20849;-47
2023/02/13 11:42:25;;;;;;;6.43;4.63;;;;;;;;;;5069617;28;20735;-45
2023/02/13 11:45:00;;;;;;;5.83;4.40;;;;;;;;;;5066011;28;20221;-44
2023/02/13 11:47:38;;;;;;;6.20;4.33;;;;;;;;;;5053878;28;20199;-47
2023/02/13 11:50:36;;;;;;;6.13;4.60;;;;;;;;;;5058314;28;20326;-45
2023/02/13 11:53:30;;;;;;;6.47;4.50;;;;;;;;;;5071131;28;20216;-45
2023/02/13 11:56:18;;;;;;;6.30;4.30;;;;;;;;;;5068538;28;20241;-45
2023/02/13 11:59:02;;;;;;;5.13;4.27;;;;;;;;;;5041932;28;20205;-45
2023/02/13 12:01:32;;;;;;;6.33;4.53;;;;;;;;;;5066868;28;20202;-46
2023/02/13 12:04:07;;;;;;;5.40;4.07;;;;;;;;;;5061074;28;20243;-45
2023/02/13 12:06:40;;;;;;;5.13;4.37;;;;;;;;;;5051683;28;20614;-45
2023/02/13 12:09:15;;;;;;;5.13;4.13;;;;;;;;;;5066704;28;20202;-45
2023/02/13 12:11:54;;;;;;;5.10;4.53;;;;;;;;;;5045737;28;20525;-48
2023/02/13 12:14:44;;;;;;;4.73;4.20;;;;;;;;;;5052884;28;20275;-49
2023/02/13 12:17:20;;;;;;;6.37;4.17;;;;;;;;;;5067344;28;20595;-48
2023/02/13 12:20:00;;;;;;;5.20;3.80;;;;;;;;;;5047402;28;20210;-48
2023/02/13 12:22:31;;;;;;;6.23;4.40;;;;;;;;;;5046988;28;20211;-48
2023/02/13 12:25:29;;;;;;;4.87;4.20;;;;;;;;;;5064038;28;20195;-48
2023/02/13 12:28:12;;;;;;;4.97;4.20;;;;;;;;;;5063493;28;20217;-48
2023/02/13 12:31:07;;;;;;;6.13;4.40;;;;;;;;;;5066697;28;20218;-48
2023/02/13 12:34:00;;;;;;;4.77;3.90;;;;;;;;;;5056715;28;20292;-48
2023/02/13 12:36:51;;;;;;;4.43;3.97;;;;;;;;;;5056957;28;20210;-45
2023/02/13 12:39:40;;;;;;;5.23;4.30;;;;;;;;;;5062159;28;20726;-44
2023/02/13 12:42:21;;;;;;;4.47;4.00;;;;;;;;;;5036745;28;20217;-44
2023/02/13 12:45:02;;;;;;;6.60;4.27;;;;;;;;;;5039270;28;20207;-45
2023/02/13 12:47:38;;;;;;;7.40;3.83;;;;;;;;;;5028801;28;20652;-45
2023/02/13 12:50:15;;;;;;;15.53;3.90;;;;;;;;;;5029548;28;20190;-44
2023/02/13 12:52:50;;;;;;;8.63;4.50;;;;;;;;;;5051596;28;20198;-45
2023/02/13 12:55:40;;;;;;;7.07;4.57;;;;;;;;;;5048991;28;20264;-48
2023/02/13 12:58:45;;;;;;;10.20;4.87;;;;;;;;;;5050273;28;20191;-48
2023/02/13 13:01:18;;;;;;;9.27;4.50;;;;;;;;;;5040195;28;20202;-44
2023/02/13 13:04:09;;;;;;;12.23;4.87;;;;;;;;;;5039395;28;20554;-44
2023/02/13 13:06:53;;;;;;;9.73;4.73;;;;;;;;;;5044923;28;20187;-48
2023/02/13 13:09:22;;;;;;;8.70;5.20;;;;;;;;;;5043916;28;20230;-48
2023/02/13 13:12:02;;;;;;;11.27;5.43;;;;;;;;;;5050165;28;20198;-48
2023/02/13 13:14:41;;;;;;;8.70;5.47;;;;;;;;;;5048961;28;20202;-48
2023/02/13 13:17:19;;;;;;;9.40;5.30;;;;;;;;;;5032878;28;20210;-48
2023/02/13 13:20:07;;;;;;;7.50;5.10;;;;;;;;;;5052288;28;20634;-47
2023/02/13 13:22:43;;;;;;;8.40;4.97;;;;;;;;;;5039227;28;20648;-48
2023/02/13 13:25:21;;;;;;;9.60;5.40;;;;;;;;;;5051406;28;20292;-45
2023/02/13 13:28:01;;;;;;;8.33;5.17;;;;;;;;;;5049152;28;20213;-44
2023/02/13 13:30:32;;;;;;;9.27;6.17;;;;;;;;;;5048579;28;20214;-44
2023/02/13 13:33:07;;;;;;;8.43;5.87;;;;;;;;;;5034796;28;20217;-44
2023/02/13 13:35:43;;;;;;;10.13;6.10;;;;;;;;;;5048325;28;20579;-45
2023/02/13 13:38:34;;;;;;;8.40;6.77;;;;;;;;;;5047702;28;20201;-44
2023/02/13 13:41:24;;;;;;;9.77;6.43;;;;;;;;;;5061453;28;20793;-45
2023/02/13 13:44:12;;;;;;;8.63;5.90;;;;;;;;;;5077512;28;20194;-44
2023/02/13 13:46:56;;;;;;;8.77;6.13;;;;;;;;;;5070958;28;20205;-48
2023/02/13 13:49:50;;;;;;;6.63;5.57;;;;;;;;;;5070342;28;20198;-47
2023/02/13 13:52:31;;;;;;;9.33;6.23;;;;;;;;;;5074051;28;20213;-44
2023/02/13 13:55:05;;;;;;;7.87;6.33;;;;;;;;;;5076226;28;20224;-44
2023/02/13 13:57:50;;;;;;;8.57;5.90;;;;;;;;;;5064304;28;20589;-44
2023/02/13 14:00:31;;;;;;;7.93;6.37;;;;;;;;;;5061980;28;20205;-47
2023/02/13 14:03:35;;;;;;;8.77;6.77;;;;;;;;;;5069176;28;20190;-48
2023/02/13 14:06:09;;;;;;;7.93;6.40;;;;;;;;;;5044208;28;20224;-44
2023/02/13 14:08:44;;;;;;;7.73;6.30;;;;;;;;;;5051645;28;20202;-44
2023/02/13 14:11:31;;;;;;;7.90;6.13;;;;;;;;;;5067415;28;20211;-47
2023/02/13 14:14:00;;;;;;;7.60;5.53;;;;;;;;;;5044650;28;20697;-48
2023/02/13 14:16:39;;;;;;;8.03;6.40;;;;;;;;;;5072083;28;20213;-44
2023/02/13 14:19:30;;;;;;;7.97;6.10;;;;;;;;;;5068633;28;20700;-44
2023/02/13 14:22:16;;;;;;;7.93;6.37;;;;;;;;;;5047357;28;20217;-44
2023/02/13 14:24:51;;;;;;;6.63;5.93;;;;;;;;;;5065184;28;20545;-44
2023/02/13 14:27:22;;;;;;;7.80;6.50;;;;;;;;;;5050804;28;20220;-44
2023/02/13 14:29:54;;;;;;;7.03;5.83;;;;;;;;;;5054843;28;20197;-44
2023/02/13 14:32:30;;;;;;;7.50;6.20;;;;;;;;;;5061607;28;20202;-44
2023/02/13 14:35:11;;;;;;;8.93;6.37;;;;;;;;;;5067177;28;20241;-47
2023/02/13 14:37:48;;;;;;;6.47;5.70;;;;;;;;;;5067140;28;20209;-47
2023/02/13 14:40:20;;;;;;;6.67;5.97;;;;;;;;;;5066840;28;20233;-48
2023/02/13 14:42:53;;;;;;;8.27;6.03;;;;;;;;;;5063134;28;20198;-48
2023/02/13 14:45:26;;;;;;;6.90;6.20;;;;;;;;;;5045211;28;20197;-44
2023/02/13 14:47:56;;;;;;;7.07;5.77;;;;;;;;;;5046510;28;20190;-44
2023/02/13 14:50:29;;;;;;;7.07;5.73;;;;;;;;;;5047445;28;20748;-44
2023/02/13 14:53:01;;;;;;;7.43;6.30;;;;;;;;;;5061799;28;20191;-44
2023/02/13 14:55:40;;;;;;;7.33;6.00;;;;;;;;;;5047746;28;20228;-44
2023/02/13 14:58:15;;;;;;;7.60;5.93;;;;;;;;;;5063091;28;20198;-44
2023/02/13 15:01:01;;;;;;;8.17;6.17;;;;;;;;;;5064420;28;20185;-44
2023/02/13 15:03:47;;;;;;;6.27;5.57;;;;;;;;;;5063848;28;20193;-44
2023/02/13 15:06:27;;;;;;;6.63;5.30;;;;;;;;;;5049086;28;20213;-44
2023/02/13 15:08:59;;;;;;;6.63;5.93;;;;;;;;;;5067411;28;20212;-44
2023/02/13 15:11:42;;;;;;;7.57;6.50;;;;;;;;;;5043508;28;20288;-44
2023/02/13 15:14:23;;;;;;;8.70;5.93;;;;;;;;;;5067036;28;20229;-44
2023/02/13 15:16:58;;;;;;;6.63;5.27;;;;;;;;;;5066544;28;20202;-44
2023/02/13 15:19:29;;;;;;;5.63;5.10;;;;;;;;;;5065641;28;20535;-44
2023/02/13 15:22:02;;;;;;;7.67;5.40;;;;;;;;;;5046351;28;20279;-44
2023/02/13 15:24:44;;;;;;;6.03;5.27;;;;;;;;;;5048722;28;20570;-47
2023/02/13 15:27:18;;;;;;;6.13;5.33;;;;;;;;;;5053456;28;20537;-45
2023/02/13 15:30:17;;;;;;;6.57;5.80;;;;;;;;;;5051030;28;20202;-44
2023/02/13 15:33:21;;;;;;;6.20;5.27;;;;;;;;;;5051725;28;20250;-47
2023/02/13 15:36:01;;;;;;;6.77;5.23;;;;;;;;;;4994939;28;20231;-44
2023/02/13 15:38:33;;;;;;;5.93;5.30;;;;;;;;;;5065569;28;20204;-44
2023/02/13 15:41:08;;;;;;;7.57;5.27;;;;;;;;;;5049778;28;20221;-44
2023/02/13 15:43:45;;;;;;;6.77;5.87;;;;;;;;;;5062777;28;20190;-44
2023/02/13 15:46:24;;;;;;;6.83;4.90;;;;;;;;;;5047920;28;20205;-47
2023/02/13 15:48:57;;;;;;;7.37;5.30;;;;;;;;;;5063483;28;20681;-46
2023/02/13 15:51:30;;;;;;;5.50;4.73;;;;;;;;;;5048676;28;20190;-49
2023/02/13 15:54:03;;;;;;;5.57;4.77;;;;;;;;;;5050681;28;20204;-49
2023/02/13 15:56:37;;;;;;;5.93;4.90;;;;;;;;;;5067775;28;20229;-48
2023/02/13 15:59:11;;;;;;;7.10;5.00;;;;;;;;;;5059402;28;20200;-48
2023/02/13 16:01:45;;;;;;;7.40;4.97;;;;;;;;;;5065751;28;20712;-48
2023/02/13 16:04:25;;;;;;;5.20;4.57;;;;;;;;;;5048622;28;20611;-48
2023/02/13 16:06:55;;;;;;;7.03;4.90;;;;;;;;;;5066813;28;20209;-48
2023/02/13 16:09:28;;;;;;;5.93;5.10;;;;;;;;;;5044189;28;20217;-48
2023/02/13 16:12:20;;;;;;;7.67;5.03;;;;;;;;;;5068886;28;20209;-44
2023/02/13 16:14:53;;;;;;;7.20;5.20;;;;;;;;;;5052635;28;20575;-44